Time;durP1;ratioP1;P1;durP2;ratioP2;P2;SDS_P1;SDS_P2;PMS_P1;PMS_P2;Temp;Humidity;BMP_temperature;BMP_pressure;BME280_temperature;BME280_humidity;BME280_pressure;Samples;Min_cycle;Max_cycle;Signal;HPM_P1;HPM_P2
2022/08/12 00:44:28;;;;;;;2.40;1.80;;;;;;;;;;5051571;28;20053;-74
2022/08/12 00:46:59;;;;;;;2.28;1.60;;;;;;;;;;5052415;28;20087;-75
2022/08/12 00:49:27;;;;;;;2.38;1.70;;;;;;;;;;5051057;28;20053;-74
2022/08/12 00:52:05;;;;;;;2.53;1.70;;;;;;;;;;5059604;28;20052;-75
2022/08/12 00:54:49;;;;;;;2.95;1.70;;;;;;;;;;5070355;28;20483;-75
2022/08/12 00:57:19;;;;;;;1.52;1.42;;;;;;;;;;5072522;28;20049;-74
2022/08/12 00:59:51;;;;;;;2.38;1.92;;;;;;;;;;5072289;28;20056;-74
2022/08/12 01:02:22;;;;;;;2.83;1.48;;;;;;;;;;5054769;28;20418;-74
2022/08/12 01:13:18;;;;;;;2.35;1.73;;;;;;;;;;5071083;28;20048;-75
2022/08/12 01:15:48;;;;;;;2.40;1.60;;;;;;;;;;5071847;28;20139;-74
2022/08/12 01:18:16;;;;;;;2.22;1.85;;;;;;;;;;5054532;28;20053;-74
2022/08/12 01:20:52;;;;;;;3.53;2.25;;;;;;;;;;5075204;28;20059;-74
2022/08/12 01:23:40;;;;;;;2.67;1.73;;;;;;;;;;5075207;28;20059;-74
2022/08/12 01:26:09;;;;;;;4.05;2.10;;;;;;;;;;5070903;28;20507;-74
2022/08/12 01:28:36;;;;;;;1.67;1.58;;;;;;;;;;5072276;28;20109;-74
2022/08/12 01:31:05;;;;;;;3.60;1.65;;;;;;;;;;5054142;28;20062;-74
2022/08/12 01:33:38;;;;;;;1.85;1.50;;;;;;;;;;5070495;28;20044;-74
2022/08/12 01:36:08;;;;;;;2.63;2.08;;;;;;;;;;5070717;28;20048;-74
2022/08/12 01:38:36;;;;;;;2.35;1.70;;;;;;;;;;5053932;28;20056;-73
2022/08/12 01:41:03;;;;;;;6.22;2.42;;;;;;;;;;5070558;28;20058;-75
2022/08/12 01:43:30;;;;;;;2.05;1.80;;;;;;;;;;5070320;28;20481;-75
2022/08/12 01:46:28;;;;;;;4.18;2.00;;;;;;;;;;5070626;28;20060;-74
2022/08/12 01:49:02;;;;;;;3.38;1.63;;;;;;;;;;5070464;28;20044;-74
2022/08/12 01:51:41;;;;;;;3.30;1.60;;;;;;;;;;5071566;28;20048;-74
2022/08/12 01:54:29;;;;;;;2.78;1.80;;;;;;;;;;5071603;28;20079;-74
2022/08/12 01:57:09;;;;;;;2.20;1.90;;;;;;;;;;5070167;28;20513;-74
2022/08/12 01:59:45;;;;;;;1.95;1.67;;;;;;;;;;5070127;28;20056;-74
2022/08/12 02:02:25;;;;;;;1.88;1.70;;;;;;;;;;5054464;28;20045;-74
2022/08/12 02:11:16;;;;;;;2.10;1.90;;;;;;;;;;5073938;28;20048;-74
2022/08/12 02:14:09;;;;;;;2.00;1.70;;;;;;;;;;5060642;28;20499;-75
2022/08/12 02:16:45;;;;;;;2.42;1.80;;;;;;;;;;5075131;28;20057;-74
2022/08/12 02:19:17;;;;;;;2.47;1.90;;;;;;;;;;5074814;28;20052;-74
2022/08/12 02:22:04;;;;;;;4.53;1.80;;;;;;;;;;5074515;28;20090;-74
2022/08/12 02:24:31;;;;;;;4.43;2.45;;;;;;;;;;5058030;28;20595;-74
2022/08/12 02:26:58;;;;;;;1.75;1.65;;;;;;;;;;5057042;28;20055;-74
2022/08/12 02:29:25;;;;;;;2.20;2.00;;;;;;;;;;5056772;28;20423;-74
2022/08/12 02:31:52;;;;;;;2.97;2.13;;;;;;;;;;5073574;28;20070;-74
2022/08/12 02:34:19;;;;;;;4.68;2.08;;;;;;;;;;5056771;28;20057;-74
2022/08/12 02:36:46;;;;;;;2.50;2.30;;;;;;;;;;5056410;28;20052;-75
2022/08/12 02:39:14;;;;;;;2.90;2.03;;;;;;;;;;5056452;28;20098;-74
2022/08/12 02:41:42;;;;;;;2.60;2.13;;;;;;;;;;5073038;28;20051;-74
2022/08/12 02:44:09;;;;;;;2.20;2.00;;;;;;;;;;5073153;28;20052;-74
2022/08/12 02:46:36;;;;;;;3.33;2.03;;;;;;;;;;5074795;28;20049;-74
2022/08/12 02:49:13;;;;;;;4.28;2.05;;;;;;;;;;5073011;28;20052;-74
2022/08/12 02:51:43;;;;;;;3.97;2.10;;;;;;;;;;5056936;28;20430;-74
2022/08/12 02:54:10;;;;;;;3.63;2.25;;;;;;;;;;5074439;28;20048;-74
2022/08/12 02:56:41;;;;;;;3.00;1.90;;;;;;;;;;5073990;28;20045;-74
2022/08/12 02:59:18;;;;;;;2.22;2.03;;;;;;;;;;5057998;28;20052;-74
2022/08/12 03:01:54;;;;;;;2.10;1.90;;;;;;;;;;5056208;28;20056;-74
2022/08/12 03:04:32;;;;;;;3.13;2.28;;;;;;;;;;5073163;28;20060;-74
2022/08/12 03:07:11;;;;;;;3.17;2.15;;;;;;;;;;5057498;28;20198;-74
2022/08/12 03:09:50;;;;;;;3.70;2.40;;;;;;;;;;5071806;28;20055;-75
2022/08/12 03:12:52;;;;;;;3.25;2.58;;;;;;;;;;5089110;28;20044;-74
2022/08/12 03:15:22;;;;;;;3.70;2.72;;;;;;;;;;5072855;28;20059;-74
2022/08/12 03:18:13;;;;;;;2.70;2.42;;;;;;;;;;5072753;28;20053;-75
2022/08/12 03:20:53;;;;;;;3.08;2.78;;;;;;;;;;5073496;28;20095;-74
2022/08/12 03:23:21;;;;;;;3.80;3.30;;;;;;;;;;5073990;28;20045;-74
2022/08/12 03:26:00;;;;;;;4.43;4.03;;;;;;;;;;5074114;28;20056;-74
2022/08/12 03:28:52;;;;;;;7.90;4.63;;;;;;;;;;5056375;28;20052;-75
2022/08/12 03:31:28;;;;;;;4.50;4.10;;;;;;;;;;5073353;28;20056;-74
2022/08/12 03:34:03;;;;;;;5.82;3.83;;;;;;;;;;5056010;28;20075;-74
2022/08/12 03:36:35;;;;;;;3.45;3.15;;;;;;;;;;5073112;28;20052;-74
2022/08/12 03:42:11;;;;;;;3.25;2.97;;;;;;;;;;5071890;28;20055;-74
2022/08/12 04:01:57;;;;;;;3.05;2.25;;;;;;;;;;5073134;28;20064;-74
2022/08/12 04:04:27;;;;;;;3.30;2.28;;;;;;;;;;5071301;28;20044;-74
2022/08/12 04:06:54;;;;;;;3.67;2.25;;;;;;;;;;5072759;28;20135;-74
2022/08/12 04:09:21;;;;;;;3.28;2.40;;;;;;;;;;5054584;28;20049;-74
2022/08/12 04:14:34;;;;;;;3.35;2.35;;;;;;;;;;5037656;28;20052;-75
2022/08/12 04:17:01;;;;;;;5.03;2.60;;;;;;;;;;5051117;28;20159;-75
2022/08/12 04:19:29;;;;;;;3.63;2.17;;;;;;;;;;5061234;28;20098;-74
2022/08/12 04:21:56;;;;;;;2.55;2.35;;;;;;;;;;5071192;28;20052;-75
2022/08/12 04:24:35;;;;;;;2.72;2.30;;;;;;;;;;5071148;28;20059;-75
2022/08/12 04:27:08;;;;;;;3.47;2.50;;;;;;;;;;5071078;28;20052;-75
2022/08/12 04:29:36;;;;;;;3.00;2.30;;;;;;;;;;5070582;28;20044;-75
2022/08/12 04:32:25;;;;;;;2.60;2.40;;;;;;;;;;5072099;28;20048;-74
2022/08/12 04:34:52;;;;;;;5.03;2.72;;;;;;;;;;5072221;28;20058;-75
2022/08/12 04:37:19;;;;;;;5.85;2.92;;;;;;;;;;5072258;28;20063;-75
2022/08/12 04:39:46;;;;;;;2.78;2.55;;;;;;;;;;5072040;28;20474;-75
2022/08/12 04:42:13;;;;;;;2.80;2.60;;;;;;;;;;5054165;28;20126;-75
2022/08/12 04:44:40;;;;;;;3.13;2.50;;;;;;;;;;5054413;28;20150;-75
2022/08/12 04:47:13;;;;;;;3.65;2.88;;;;;;;;;;5054438;28;20083;-75
2022/08/12 04:49:40;;;;;;;4.67;2.37;;;;;;;;;;5070859;28;20178;-75
2022/08/12 04:52:06;;;;;;;4.25;2.35;;;;;;;;;;5072026;28;20283;-75
2022/08/12 04:54:33;;;;;;;3.15;2.50;;;;;;;;;;5070747;28;20053;-75
2022/08/12 04:57:00;;;;;;;4.75;2.83;;;;;;;;;;5070720;28;20056;-74
2022/08/12 04:59:34;;;;;;;3.78;2.78;;;;;;;;;;5070698;28;20423;-75
2022/08/12 05:02:15;;;;;;;4.43;2.45;;;;;;;;;;5070853;28;20080;-75
2022/08/12 05:04:48;;;;;;;3.10;2.80;;;;;;;;;;5071850;28;20064;-75
2022/08/12 05:07:15;;;;;;;5.38;3.42;;;;;;;;;;5054487;28;20281;-74
2022/08/12 05:09:42;;;;;;;3.53;3.13;;;;;;;;;;5071677;28;20048;-74
2022/08/12 05:12:38;;;;;;;5.05;2.75;;;;;;;;;;5071899;28;20072;-75
2022/08/12 05:15:06;;;;;;;4.40;2.70;;;;;;;;;;5070578;28;20053;-75
2022/08/12 05:17:45;;;;;;;3.90;2.58;;;;;;;;;;5071764;28;20075;-73
2022/08/12 05:20:15;;;;;;;2.92;2.60;;;;;;;;;;5070400;28;20106;-75
2022/08/12 05:22:45;;;;;;;5.40;2.42;;;;;;;;;;5074312;28;20044;-74
2022/08/12 05:25:14;;;;;;;3.95;2.72;;;;;;;;;;5069630;28;20062;-73
2022/08/12 05:27:44;;;;;;;2.50;2.30;;;;;;;;;;5069542;28;20534;-73
2022/08/12 05:30:24;;;;;;;3.55;2.40;;;;;;;;;;5069450;28;20052;-74
2022/08/12 05:32:50;;;;;;;4.57;2.33;;;;;;;;;;5069649;28;20044;-74
2022/08/12 05:35:19;;;;;;;3.17;2.75;;;;;;;;;;5069420;28;20051;-74
2022/08/12 05:37:48;;;;;;;2.80;2.60;;;;;;;;;;5069092;28;20404;-75
2022/08/12 05:40:15;;;;;;;2.55;2.35;;;;;;;;;;5071047;28;20155;-75
2022/08/12 05:42:41;;;;;;;6.43;2.75;;;;;;;;;;5073942;28;20052;-75
2022/08/12 05:45:09;;;;;;;4.72;2.65;;;;;;;;;;5073611;28;20395;-74
2022/08/12 05:47:36;;;;;;;2.97;2.67;;;;;;;;;;5073626;28;20048;-74
2022/08/12 05:50:19;;;;;;;3.97;2.55;;;;;;;;;;5073250;28;20084;-74
2022/08/12 05:52:47;;;;;;;4.00;2.58;;;;;;;;;;5074091;28;20045;-74
2022/08/12 05:55:14;;;;;;;4.53;2.47;;;;;;;;;;5074028;28;20048;-75
2022/08/12 05:57:43;;;;;;;2.60;2.40;;;;;;;;;;5074289;28;20048;-74
2022/08/12 06:00:10;;;;;;;3.63;2.55;;;;;;;;;;5072321;28;20063;-74
2022/08/12 06:02:36;;;;;;;2.92;2.50;;;;;;;;;;5074229;28;20131;-71
2022/08/12 06:05:06;;;;;;;2.70;2.28;;;;;;;;;;5072929;28;20084;-71
2022/08/12 06:07:33;;;;;;;2.92;2.33;;;;;;;;;;5073166;28;20052;-73
2022/08/12 06:10:20;;;;;;;3.00;2.60;;;;;;;;;;5050561;28;20056;-73
2022/08/12 06:13:03;;;;;;;3.17;2.40;;;;;;;;;;5061159;28;20060;-69
2022/08/12 06:15:30;;;;;;;4.90;2.35;;;;;;;;;;5071425;28;20060;-69
2022/08/12 06:18:05;;;;;;;4.47;2.90;;;;;;;;;;5053750;28;20052;-72
2022/08/12 06:20:42;;;;;;;5.30;2.53;;;;;;;;;;5064404;28;20503;-69
2022/08/12 06:23:10;;;;;;;2.83;2.30;;;;;;;;;;5069382;28;20506;-68
2022/08/12 06:25:37;;;;;;;6.32;2.25;;;;;;;;;;5071447;28;20110;-69
2022/08/12 06:28:14;;;;;;;3.35;2.00;;;;;;;;;;5071956;28;20143;-68
2022/08/12 06:30:41;;;;;;;3.03;2.50;;;;;;;;;;5071145;28;20053;-68
2022/08/12 06:33:07;;;;;;;3.80;2.25;;;;;;;;;;5072107;28;20059;-69
2022/08/12 06:35:51;;;;;;;2.47;2.27;;;;;;;;;;5072091;28;20534;-67
2022/08/12 06:38:24;;;;;;;4.63;2.40;;;;;;;;;;5071705;28;20099;-66
2022/08/12 06:43:43;;;;;;;7.28;3.03;;;;;;;;;;5073131;28;20044;-67
2022/08/12 06:46:29;;;;;;;6.28;2.13;;;;;;;;;;5073622;28;20436;-67
2022/08/12 06:48:57;;;;;;;3.72;2.20;;;;;;;;;;5074014;28;20048;-67
2022/08/12 06:51:29;;;;;;;4.40;2.33;;;;;;;;;;5070912;28;20056;-67
2022/08/12 06:53:57;;;;;;;2.63;2.22;;;;;;;;;;5074373;28;20048;-67
2022/08/12 06:56:24;;;;;;;4.93;2.28;;;;;;;;;;5074099;28;20431;-67
2022/08/12 06:59:12;;;;;;;3.40;2.35;;;;;;;;;;5073703;28;20055;-66
2022/08/12 07:01:39;;;;;;;6.93;2.13;;;;;;;;;;5073860;28;20235;-66
2022/08/12 07:04:16;;;;;;;2.75;2.20;;;;;;;;;;5072860;28;20123;-67
2022/08/12 07:07:04;;;;;;;5.90;2.92;;;;;;;;;;5073802;28;20062;-67
2022/08/12 07:09:31;;;;;;;2.88;2.47;;;;;;;;;;5073413;28;20087;-67
2022/08/12 07:12:18;;;;;;;4.55;2.55;;;;;;;;;;5073856;28;20054;-67
2022/08/12 07:14:50;;;;;;;3.50;2.40;;;;;;;;;;5073234;28;20094;-67
2022/08/12 07:17:17;;;;;;;3.35;2.20;;;;;;;;;;5073744;28;20174;-66
2022/08/12 07:19:45;;;;;;;7.30;2.42;;;;;;;;;;5073432;28;20053;-67
2022/08/12 07:22:14;;;;;;;3.72;2.53;;;;;;;;;;5073501;28;20055;-67
2022/08/12 07:24:41;;;;;;;3.17;2.20;;;;;;;;;;5058130;28;20049;-67
2022/08/12 07:27:08;;;;;;;3.38;2.30;;;;;;;;;;5052759;28;20049;-71
2022/08/12 07:29:34;;;;;;;2.72;2.00;;;;;;;;;;5052196;28;20422;-70
2022/08/12 07:32:23;;;;;;;3.58;2.55;;;;;;;;;;5053580;28;20053;-69
2022/08/12 07:34:54;;;;;;;7.45;2.15;;;;;;;;;;5054587;28;20573;-68
2022/08/12 07:37:21;;;;;;;1.75;1.65;;;;;;;;;;5052885;28;20049;-69
2022/08/12 07:39:49;;;;;;;3.17;1.92;;;;;;;;;;5053090;28;20053;-68
2022/08/12 07:42:26;;;;;;;3.85;1.60;;;;;;;;;;5052968;28;20087;-68
2022/08/12 07:44:53;;;;;;;3.45;2.10;;;;;;;;;;5052524;28;20060;-69
2022/08/12 07:47:20;;;;;;;2.97;1.77;;;;;;;;;;5052638;28;20049;-69
2022/08/12 07:49:47;;;;;;;4.03;2.00;;;;;;;;;;5052810;28;20049;-69
2022/08/12 07:52:33;;;;;;;5.10;1.60;;;;;;;;;;5052836;28;20084;-72
2022/08/12 07:55:00;;;;;;;3.95;2.22;;;;;;;;;;5061111;28;20056;-70
2022/08/12 07:57:27;;;;;;;4.47;1.88;;;;;;;;;;5072518;28;20050;-70
2022/08/12 07:59:54;;;;;;;2.78;1.70;;;;;;;;;;5072380;28;20132;-69
2022/08/12 08:02:22;;;;;;;3.35;1.67;;;;;;;;;;5072254;28;20443;-69
2022/08/12 08:04:55;;;;;;;3.60;1.42;;;;;;;;;;5072344;28;20048;-70
2022/08/12 08:07:23;;;;;;;2.60;1.77;;;;;;;;;;5072971;28;20052;-68
2022/08/12 08:09:56;;;;;;;4.25;1.90;;;;;;;;;;5072259;28;20052;-70
2022/08/12 08:15:16;;;;;;;2.20;1.92;;;;;;;;;;5056420;28;20488;-76
2022/08/12 08:18:01;;;;;;;1.65;1.55;;;;;;;;;;5065257;28;20057;-74
2022/08/12 08:20:32;;;;;;;4.03;1.85;;;;;;;;;;5067390;28;20052;-73
2022/08/12 08:23:05;;;;;;;3.05;2.05;;;;;;;;;;5065983;28;20130;-69
2022/08/12 08:25:37;;;;;;;2.65;2.45;;;;;;;;;;5069190;28;20052;-77
2022/08/12 08:28:09;;;;;;;2.53;1.67;;;;;;;;;;5051543;28;20580;-70
2022/08/12 08:30:38;;;;;;;1.85;1.75;;;;;;;;;;5060465;28;20070;-74
2022/08/12 08:33:43;;;;;;;2.20;2.00;;;;;;;;;;5045229;28;20051;-74
2022/08/12 08:36:42;;;;;;;1.92;1.73;;;;;;;;;;5057667;28;20083;-71
2022/08/12 08:39:11;;;;;;;2.95;1.73;;;;;;;;;;5052019;28;20068;-71
2022/08/12 08:44:44;;;;;;;2.10;1.75;;;;;;;;;;5067410;28;20060;-71
2022/08/12 08:47:14;;;;;;;3.40;1.88;;;;;;;;;;5060913;28;20049;-73
2022/08/12 08:49:44;;;;;;;2.10;1.73;;;;;;;;;;5050064;28;20472;-74
2022/08/12 08:52:12;;;;;;;2.22;1.85;;;;;;;;;;5042699;28;20049;-74
2022/08/12 08:55:05;;;;;;;2.00;1.80;;;;;;;;;;5052979;28;20052;-75
2022/08/12 08:57:33;;;;;;;3.80;1.77;;;;;;;;;;5062737;28;20052;-69
2022/08/12 09:00:18;;;;;;;2.25;1.63;;;;;;;;;;5057629;28;20083;-70
2022/08/12 09:02:46;;;;;;;5.53;2.20;;;;;;;;;;5057710;28;20049;-69
2022/08/12 09:05:25;;;;;;;2.88;2.58;;;;;;;;;;5062576;28;20041;-69
2022/08/12 09:07:54;;;;;;;3.42;1.60;;;;;;;;;;5060732;28;20058;-69
2022/08/12 09:10:38;;;;;;;3.90;1.90;;;;;;;;;;5059185;28;20581;-68
2022/08/12 09:13:36;;;;;;;3.65;1.52;;;;;;;;;;5061640;28;20048;-68
2022/08/12 09:16:23;;;;;;;2.20;1.30;;;;;;;;;;5064683;28;20045;-69
2022/08/12 09:18:51;;;;;;;2.40;1.40;;;;;;;;;;5062045;28;20052;-68
2022/08/12 09:21:20;;;;;;;4.80;2.13;;;;;;;;;;5067455;28;20040;-68
2022/08/12 09:23:49;;;;;;;3.78;1.23;;;;;;;;;;5063475;28;20491;-69
2022/08/12 09:26:31;;;;;;;1.90;1.40;;;;;;;;;;5064642;28;20092;-69
2022/08/12 09:29:20;;;;;;;1.80;1.40;;;;;;;;;;5065789;28;20095;-68
2022/08/12 09:32:08;;;;;;;1.92;1.65;;;;;;;;;;5062206;28;20422;-68
2022/08/12 09:34:55;;;;;;;8.45;1.60;;;;;;;;;;5060786;28;20041;-68
2022/08/12 09:37:25;;;;;;;2.80;1.30;;;;;;;;;;5061719;28;20068;-69
2022/08/12 09:39:53;;;;;;;2.05;1.27;;;;;;;;;;5061592;28;20102;-69
2022/08/12 09:45:44;;;;;;;1.58;1.30;;;;;;;;;;5061813;28;20044;-69
2022/08/12 09:48:33;;;;;;;4.50;1.27;;;;;;;;;;5062146;28;20060;-70
2022/08/12 09:51:02;;;;;;;3.55;1.50;;;;;;;;;;5061478;28;20491;-70
2022/08/12 09:53:29;;;;;;;3.67;1.60;;;;;;;;;;5070678;28;20052;-70
2022/08/12 09:56:06;;;;;;;5.18;1.48;;;;;;;;;;5061078;28;20079;-69
2022/08/12 09:58:52;;;;;;;2.08;1.60;;;;;;;;;;5063128;28;20045;-69
2022/08/12 10:01:27;;;;;;;2.50;1.35;;;;;;;;;;5069832;28;20072;-67
2022/08/12 10:04:14;;;;;;;1.40;1.30;;;;;;;;;;5062701;28;20044;-76
2022/08/12 10:06:45;;;;;;;3.05;1.70;;;;;;;;;;5063963;28;20060;-66
2022/08/12 10:09:19;;;;;;;1.30;1.10;;;;;;;;;;5062962;28;20059;-68
2022/08/12 10:14:40;;;;;;;3.97;1.40;;;;;;;;;;5061328;28;20642;-68
2022/08/12 10:17:21;;;;;;;1.40;1.30;;;;;;;;;;5051167;28;20106;-71
2022/08/12 10:19:50;;;;;;;2.20;1.08;;;;;;;;;;5061166;28;20465;-73
2022/08/12 10:22:19;;;;;;;2.85;1.50;;;;;;;;;;5060404;28;20052;-73
2022/08/12 10:30:58;;;;;;;1.58;1.23;;;;;;;;;;5059704;28;20055;-73
2022/08/12 10:33:30;;;;;;;1.50;0.90;;;;;;;;;;5062741;28;20082;-71
2022/08/12 10:36:00;;;;;;;1.80;1.30;;;;;;;;;;5061887;28;20076;-79
2022/08/12 10:38:28;;;;;;;1.73;1.30;;;;;;;;;;5062093;28;20055;-75
2022/08/12 10:44:28;;;;;;;1.90;1.20;;;;;;;;;;5065592;28;20056;-75
2022/08/12 10:46:56;;;;;;;2.70;1.30;;;;;;;;;;5053325;28;20060;-72
2022/08/12 10:49:27;;;;;;;2.95;1.23;;;;;;;;;;5061546;28;20058;-70
2022/08/12 10:52:14;;;;;;;1.63;1.42;;;;;;;;;;5060792;28;20052;-71
2022/08/12 10:55:00;;;;;;;1.85;1.00;;;;;;;;;;5058439;28;20068;-76
2022/08/12 10:57:39;;;;;;;2.17;1.75;;;;;;;;;;5064856;28;20051;-77
2022/08/12 11:00:26;;;;;;;2.15;1.10;;;;;;;;;;5055628;28;20062;-71
2022/08/12 11:03:01;;;;;;;2.25;1.63;;;;;;;;;;5058875;28;20041;-71
2022/08/12 11:05:48;;;;;;;2.65;1.60;;;;;;;;;;5062916;28;20044;-71
2022/08/12 11:08:36;;;;;;;4.60;1.40;;;;;;;;;;5061739;28;20646;-71
2022/08/12 11:11:16;;;;;;;2.95;1.50;;;;;;;;;;5060496;28;20052;-71
2022/08/12 11:14:03;;;;;;;2.33;1.10;;;;;;;;;;5061945;28;20052;-71
2022/08/12 11:16:31;;;;;;;1.48;1.23;;;;;;;;;;5059529;28;20055;-71
2022/08/12 11:18:58;;;;;;;3.50;1.40;;;;;;;;;;5062449;28;20451;-71
2022/08/12 11:21:28;;;;;;;1.67;1.30;;;;;;;;;;5063208;28;20457;-71
2022/08/12 11:24:15;;;;;;;1.15;1.00;;;;;;;;;;5059249;28;20044;-71
2022/08/12 11:26:57;;;;;;;1.60;1.30;;;;;;;;;;5058858;28;20053;-71
2022/08/12 11:29:25;;;;;;;2.53;1.20;;;;;;;;;;5060425;28;20041;-71
2022/08/12 11:32:12;;;;;;;4.35;0.93;;;;;;;;;;5069342;28;20060;-71
2022/08/12 11:34:39;;;;;;;1.23;1.08;;;;;;;;;;5057935;28;20052;-71
2022/08/12 11:37:19;;;;;;;1.92;1.30;;;;;;;;;;5061555;28;20044;-71
2022/08/12 11:40:06;;;;;;;2.55;1.33;;;;;;;;;;5061298;28;20045;-71
2022/08/12 11:42:36;;;;;;;3.47;1.40;;;;;;;;;;5067438;28;20052;-71
2022/08/12 11:45:11;;;;;;;1.30;1.20;;;;;;;;;;5059984;28;20110;-71
2022/08/12 11:47:42;;;;;;;3.72;1.40;;;;;;;;;;5060102;28;20049;-71
2022/08/12 11:50:09;;;;;;;2.30;1.30;;;;;;;;;;5061474;28;20049;-71
2022/08/12 11:52:40;;;;;;;3.47;1.33;;;;;;;;;;5059988;28;20127;-71
2022/08/12 11:55:23;;;;;;;2.85;1.38;;;;;;;;;;5068180;28;20040;-72
2022/08/12 11:57:54;;;;;;;1.35;1.10;;;;;;;;;;5062141;28;20131;-71
2022/08/12 12:00:40;;;;;;;1.48;1.20;;;;;;;;;;5061358;28;20056;-71
2022/08/12 12:03:27;;;;;;;3.70;1.38;;;;;;;;;;5062823;28;20051;-71
2022/08/12 12:06:16;;;;;;;1.75;0.93;;;;;;;;;;5059723;28;20068;-72
2022/08/12 12:08:44;;;;;;;2.20;1.30;;;;;;;;;;5058577;28;20052;-71
2022/08/12 12:11:18;;;;;;;2.28;1.08;;;;;;;;;;5059982;28;20298;-71
2022/08/12 12:13:45;;;;;;;5.28;1.30;;;;;;;;;;5059913;28;20051;-71
2022/08/12 12:16:32;;;;;;;1.10;1.00;;;;;;;;;;5059002;28;20094;-71
2022/08/12 12:19:07;;;;;;;1.33;1.20;;;;;;;;;;5057305;28;20052;-71
2022/08/12 12:21:36;;;;;;;2.05;1.23;;;;;;;;;;5061104;28;20048;-71
2022/08/12 12:24:18;;;;;;;2.05;1.30;;;;;;;;;;5060271;28;20049;-71
2022/08/12 12:26:49;;;;;;;2.75;1.40;;;;;;;;;;5061949;28;20140;-71
2022/08/12 12:29:29;;;;;;;2.00;1.23;;;;;;;;;;5063809;28;20044;-71
2022/08/12 12:32:16;;;;;;;2.00;1.23;;;;;;;;;;5064939;28;20053;-72
2022/08/12 12:34:44;;;;;;;2.63;1.70;;;;;;;;;;5060816;28;20041;-71
2022/08/12 12:37:31;;;;;;;3.35;2.85;;;;;;;;;;5061400;28;20059;-71
2022/08/12 12:40:17;;;;;;;3.42;1.30;;;;;;;;;;5061458;28;20496;-71
2022/08/12 12:42:44;;;;;;;1.42;1.33;;;;;;;;;;5064125;28;20045;-71
2022/08/12 12:45:23;;;;;;;1.50;1.25;;;;;;;;;;5059063;28;20148;-71
2022/08/12 12:48:10;;;;;;;2.72;1.30;;;;;;;;;;5063314;28;20080;-71
2022/08/12 12:50:42;;;;;;;1.25;1.02;;;;;;;;;;5062024;28;20066;-71
2022/08/12 12:53:20;;;;;;;1.92;1.08;;;;;;;;;;5061520;28;20956;-71
2022/08/12 12:56:09;;;;;;;1.85;1.30;;;;;;;;;;5060792;28;20059;-72
2022/08/12 12:58:36;;;;;;;2.08;1.10;;;;;;;;;;5064068;28;20059;-71
2022/08/12 13:01:03;;;;;;;1.75;1.30;;;;;;;;;;5063502;28;20415;-71
2022/08/12 13:03:55;;;;;;;1.92;1.00;;;;;;;;;;5058726;28;20570;-72
2022/08/12 13:06:30;;;;;;;2.03;1.40;;;;;;;;;;5057594;28;20515;-71
2022/08/12 13:08:59;;;;;;;1.10;1.00;;;;;;;;;;5060418;28;20059;-71
2022/08/12 13:11:32;;;;;;;2.40;1.00;;;;;;;;;;5057299;28;20468;-71
2022/08/12 13:14:08;;;;;;;1.85;1.20;;;;;;;;;;5060345;28;20136;-71
2022/08/12 13:16:53;;;;;;;2.17;1.13;;;;;;;;;;5062313;28;20056;-71
2022/08/12 13:19:22;;;;;;;4.57;1.00;;;;;;;;;;5058477;28;20114;-71
2022/08/12 13:22:17;;;;;;;1.10;1.00;;;;;;;;;;5066194;28;20098;-71
2022/08/12 13:24:51;;;;;;;0.98;0.90;;;;;;;;;;5059828;28;20084;-71
2022/08/12 13:27:44;;;;;;;2.33;1.00;;;;;;;;;;5061593;28;20045;-72
2022/08/12 13:30:19;;;;;;;;;;;;;;;;;;5060186;28;20511;-71
2022/08/12 13:32:53;;;;;;;1.20;1.08;;;;;;;;;;5057000;28;20310;-71
2022/08/12 13:35:28;;;;;;;1.73;1.00;;;;;;;;;;5059784;28;20052;-71
2022/08/12 13:38:15;;;;;;;4.47;1.23;;;;;;;;;;5059947;28;20056;-72
2022/08/12 13:41:00;;;;;;;1.33;1.10;;;;;;;;;;5060229;28;20495;-71
2022/08/12 13:43:27;;;;;;;1.08;0.98;;;;;;;;;;5057050;28;20045;-71
2022/08/12 13:46:08;;;;;;;1.92;0.80;;;;;;;;;;5056928;28;20052;-71
2022/08/12 13:48:42;;;;;;;0.88;0.80;;;;;;;;;;5058800;28;20417;-71
2022/08/12 13:51:10;;;;;;;1.88;1.20;;;;;;;;;;5057316;28;20053;-71
2022/08/12 13:53:39;;;;;;;2.70;0.93;;;;;;;;;;5059405;28;20051;-72
2022/08/12 13:56:26;;;;;;;2.65;1.20;;;;;;;;;;5059873;28;20040;-72
2022/08/12 13:59:04;;;;;;;3.10;1.17;;;;;;;;;;5057696;28;20048;-72
2022/08/12 14:01:34;;;;;;;1.95;1.00;;;;;;;;;;5058194;28;20056;-72
2022/08/12 14:04:08;;;;;;;1.40;1.10;;;;;;;;;;5062143;28;20048;-72
2022/08/12 14:06:38;;;;;;;2.08;0.88;;;;;;;;;;5062268;28;20048;-72
2022/08/12 14:09:05;;;;;;;1.33;0.98;;;;;;;;;;5063188;28;20052;-71
2022/08/12 14:11:44;;;;;;;0.75;0.75;;;;;;;;;;5064436;28;20056;-69
2022/08/12 14:14:25;;;;;;;1.55;0.98;;;;;;;;;;5074226;28;20049;-68
2022/08/12 14:16:52;;;;;;;1.02;0.80;;;;;;;;;;5061303;28;20105;-70
2022/08/12 14:19:19;;;;;;;1.75;1.40;;;;;;;;;;5062214;28;20131;-68
2022/08/12 14:21:51;;;;;;;2.10;1.23;;;;;;;;;;5059804;28;20510;-68
2022/08/12 14:24:35;;;;;;;1.50;0.90;;;;;;;;;;5060588;28;20048;-67
2022/08/12 14:27:07;;;;;;;2.35;0.93;;;;;;;;;;5069385;28;20045;-67
2022/08/12 14:29:40;;;;;;;1.48;1.27;;;;;;;;;;5058121;28;20072;-67
2022/08/12 14:32:27;;;;;;;1.30;0.80;;;;;;;;;;5068286;28;20049;-67
2022/08/12 14:34:55;;;;;;;1.40;0.80;;;;;;;;;;5061461;28;20052;-67
2022/08/12 14:37:22;;;;;;;2.20;0.80;;;;;;;;;;5060338;28;20562;-67
2022/08/12 14:40:10;;;;;;;1.42;1.02;;;;;;;;;;5061624;28;20459;-67
2022/08/12 14:42:44;;;;;;;1.00;0.90;;;;;;;;;;5064211;28;20132;-67
2022/08/12 14:45:12;;;;;;;2.03;0.85;;;;;;;;;;5071992;28;20044;-67
2022/08/12 14:47:53;;;;;;;1.70;1.00;;;;;;;;;;5073377;28;20052;-67
2022/08/12 14:50:24;;;;;;;2.35;1.00;;;;;;;;;;5074155;28;20574;-67
2022/08/12 14:53:13;;;;;;;3.70;1.30;;;;;;;;;;5074073;28;20102;-67
2022/08/12 14:56:00;;;;;;;1.15;0.90;;;;;;;;;;5073955;28;20503;-67
2022/08/12 15:01:49;;;;;;;;;;;;;;;;;;5074758;28;20094;-67
2022/08/12 15:04:23;;;;;;;2.38;0.90;;;;;;;;;;5074407;28;19920;-67
2022/08/12 15:06:51;;;;;;;2.00;1.00;;;;;;;;;;5073155;28;20469;-67
2022/08/12 15:09:18;;;;;;;2.78;0.93;;;;;;;;;;5072446;28;20454;-67
2022/08/12 15:11:54;;;;;;;3.80;1.10;;;;;;;;;;5073124;28;20052;-67
2022/08/12 15:14:30;;;;;;;1.83;0.90;;;;;;;;;;5073729;28;20102;-67
2022/08/12 15:16:57;;;;;;;2.65;0.80;;;;;;;;;;5073641;28;20135;-72
2022/08/12 15:19:28;;;;;;;3.03;0.88;;;;;;;;;;5072462;28;20449;-67
2022/08/12 15:22:16;;;;;;;2.42;0.65;;;;;;;;;;5073844;28;20063;-68
2022/08/12 15:25:04;;;;;;;1.92;1.52;;;;;;;;;;5072578;28;20052;-67
2022/08/12 15:27:33;;;;;;;1.92;1.10;;;;;;;;;;5073214;28;20139;-68
2022/08/12 15:30:23;;;;;;;1.17;1.08;;;;;;;;;;5061600;28;20067;-67
2022/08/12 15:32:58;;;;;;;3.72;1.13;;;;;;;;;;5064465;28;20057;-73
2022/08/12 15:35:28;;;;;;;2.28;1.20;;;;;;;;;;5058458;28;20054;-73
2022/08/12 15:38:16;;;;;;;1.67;0.93;;;;;;;;;;5059167;28;20098;-72
2022/08/12 15:40:48;;;;;;;1.35;0.82;;;;;;;;;;5054573;28;20055;-72
2022/08/12 15:43:18;;;;;;;2.25;0.90;;;;;;;;;;5060401;28;20499;-73
2022/08/12 15:46:05;;;;;;;2.85;1.10;;;;;;;;;;5058732;28;20045;-72
2022/08/12 15:48:32;;;;;;;1.70;0.80;;;;;;;;;;5058417;28;20136;-67
2022/08/12 15:51:00;;;;;;;2.95;0.90;;;;;;;;;;5058795;28;20048;-70
2022/08/12 15:56:22;;;;;;;0.75;0.75;;;;;;;;;;5060428;28;20441;-68
2022/08/12 15:58:57;;;;;;;3.28;1.00;;;;;;;;;;5063268;28;20063;-68
2022/08/12 16:01:27;;;;;;;2.42;1.45;;;;;;;;;;5062179;28;20138;-67
2022/08/12 16:04:01;;;;;;;2.33;1.00;;;;;;;;;;5064596;28;20102;-68
2022/08/12 16:06:28;;;;;;;0.90;0.90;;;;;;;;;;5058190;28;20051;-71
2022/08/12 16:09:18;;;;;;;3.78;1.27;;;;;;;;;;5060517;28;20059;-68
2022/08/12 16:12:06;;;;;;;3.38;0.82;;;;;;;;;;5065072;28;20132;-70
2022/08/12 16:14:37;;;;;;;1.85;1.05;;;;;;;;;;5065513;28;20052;-68
2022/08/12 16:17:04;;;;;;;0.77;0.75;;;;;;;;;;5059708;28;20135;-70
2022/08/12 16:19:35;;;;;;;1.67;1.00;;;;;;;;;;5056186;28;20568;-70
2022/08/12 16:22:24;;;;;;;3.70;0.90;;;;;;;;;;5060872;28;20049;-67
2022/08/12 16:24:52;;;;;;;3.55;1.30;;;;;;;;;;5058422;28;20079;-74
2022/08/12 16:27:22;;;;;;;2.75;0.80;;;;;;;;;;5059629;28;20048;-74
2022/08/12 16:29:56;;;;;;;2.15;1.00;;;;;;;;;;5062451;28;20499;-74
2022/08/12 16:32:24;;;;;;;2.58;1.08;;;;;;;;;;5058550;28;20052;-73
2022/08/12 16:34:57;;;;;;;2.17;1.00;;;;;;;;;;5059005;28;20048;-71
2022/08/12 16:37:32;;;;;;;2.13;0.95;;;;;;;;;;5060976;28;20404;-73
2022/08/12 16:40:18;;;;;;;3.15;1.55;;;;;;;;;;5061189;28;20051;-73
2022/08/12 16:42:45;;;;;;;2.90;0.80;;;;;;;;;;5055248;28;20064;-71
2022/08/12 16:45:30;;;;;;;1.10;1.00;;;;;;;;;;5059827;28;20056;-74
2022/08/12 16:48:16;;;;;;;1.40;0.93;;;;;;;;;;5061862;28;20040;-73
2022/08/12 16:51:06;;;;;;;1.63;1.08;;;;;;;;;;5061307;28;20049;-74
2022/08/12 16:53:39;;;;;;;2.13;0.80;;;;;;;;;;5056890;28;20060;-73
2022/08/12 16:56:11;;;;;;;2.15;0.80;;;;;;;;;;5059237;28;20055;-73
2022/08/12 16:58:38;;;;;;;1.17;0.80;;;;;;;;;;5059849;28;20048;-73
2022/08/12 17:01:10;;;;;;;1.20;1.00;;;;;;;;;;5060024;28;20048;-73
2022/08/12 17:03:42;;;;;;;1.30;0.80;;;;;;;;;;5067338;28;20052;-73
2022/08/12 17:06:22;;;;;;;1.30;0.70;;;;;;;;;;5057325;28;20052;-70
2022/08/12 17:09:01;;;;;;;0.70;0.70;;;;;;;;;;5061125;28;20052;-70
2022/08/12 17:11:29;;;;;;;2.10;0.80;;;;;;;;;;5055605;28;20101;-70
2022/08/12 17:13:58;;;;;;;2.45;0.93;;;;;;;;;;5053841;28;20049;-70
2022/08/12 17:16:25;;;;;;;1.70;0.90;;;;;;;;;;5059482;28;20060;-70
2022/08/12 17:18:57;;;;;;;0.77;0.68;;;;;;;;;;5055401;28;20049;-69